sensor_id;sensor_type;location;lat;lon;timestamp;pressure;altitude;pressure_sealevel;temperature;humidity
32083;BME280;18597;48.328;7.932;2023-01-08T00:00:50;98972.25;;;7.35;100.00
32083;BME280;18597;48.328;7.932;2023-01-08T00:03:16;98974.72;;;7.27;100.00
32083;BME280;18597;48.328;7.932;2023-01-08T00:05:42;98977.06;;;7.41;100.00
32083;BME280;18597;48.328;7.932;2023-01-08T00:08:08;98971.41;;;7.34;100.00
32083;BME280;18597;48.328;7.932;2023-01-08T00:10:37;98970.66;;;7.43;100.00
32083;BME280;18597;48.328;7.932;2023-01-08T00:13:04;98966.09;;;7.55;100.00
32083;BME280;18597;48.328;7.932;2023-01-08T00:15:31;98961.97;;;7.62;100.00
32083;BME280;18597;48.328;7.932;2023-01-08T00:17:57;98953.03;;;7.84;100.00
32083;BME280;18597;48.328;7.932;2023-01-08T00:20:23;98954.06;;;7.93;100.00
32083;BME280;18597;48.328;7.932;2023-01-08T00:22:50;98951.66;;;7.90;100.00
32083;BME280;18597;48.328;7.932;2023-01-08T00:25:16;98949.00;;;7.69;100.00
32083;BME280;18597;48.328;7.932;2023-01-08T00:27:43;98956.03;;;7.49;100.00
32083;BME280;18597;48.328;7.932;2023-01-08T00:30:10;98962.63;;;7.55;100.00
32083;BME280;18597;48.328;7.932;2023-01-08T00:32:36;98943.31;;;7.53;100.00
32083;BME280;18597;48.328;7.932;2023-01-08T00:35:03;98937.94;;;7.64;100.00
32083;BME280;18597;48.328;7.932;2023-01-08T00:37:29;98931.16;;;7.39;100.00
32083;BME280;18597;48.328;7.932;2023-01-08T00:39:55;98937.28;;;7.50;100.00
32083;BME280;18597;48.328;7.932;2023-01-08T00:42:21;98939.19;;;7.28;100.00
32083;BME280;18597;48.328;7.932;2023-01-08T00:44:47;98943.81;;;7.26;100.00
32083;BME280;18597;48.328;7.932;2023-01-08T00:47:13;98934.94;;;7.36;100.00
32083;BME280;18597;48.328;7.932;2023-01-08T00:49:40;98937.91;;;7.43;100.00
32083;BME280;18597;48.328;7.932;2023-01-08T00:52:05;98937.41;;;7.49;100.00
32083;BME280;18597;48.328;7.932;2023-01-08T00:54:31;98933.91;;;7.48;100.00
32083;BME280;18597;48.328;7.932;2023-01-08T00:56:57;98928.78;;;7.57;100.00
32083;BME280;18597;48.328;7.932;2023-01-08T00:59:23;98928.66;;;7.58;100.00
32083;BME280;18597;48.328;7.932;2023-01-08T01:01:49;98922.00;;;7.64;100.00
32083;BME280;18597;48.328;7.932;2023-01-08T01:04:15;98916.53;;;7.65;100.00
32083;BME280;18597;48.328;7.932;2023-01-08T01:06:41;98913.47;;;7.70;100.00
32083;BME280;18597;48.328;7.932;2023-01-08T01:09:08;98914.63;;;7.77;100.00
32083;BME280;18597;48.328;7.932;2023-01-08T01:11:34;98907.97;;;7.83;100.00
32083;BME280;18597;48.328;7.932;2023-01-08T01:14:00;98906.41;;;7.80;100.00
32083;BME280;18597;48.328;7.932;2023-01-08T01:16:26;98904.59;;;7.81;100.00
32083;BME280;18597;48.328;7.932;2023-01-08T01:18:52;98904.56;;;7.71;100.00
32083;BME280;18597;48.328;7.932;2023-01-08T01:21:25;98893.91;;;7.71;100.00
32083;BME280;18597;48.328;7.932;2023-01-08T01:23:55;98891.25;;;7.71;100.00
32083;BME280;18597;48.328;7.932;2023-01-08T01:26:22;98887.28;;;7.65;100.00
32083;BME280;18597;48.328;7.932;2023-01-08T01:28:51;98891.16;;;7.82;100.00
32083;BME280;18597;48.328;7.932;2023-01-08T01:31:18;98884.72;;;7.85;100.00
32083;BME280;18597;48.328;7.932;2023-01-08T01:33:45;98890.88;;;7.85;100.00
32083;BME280;18597;48.328;7.932;2023-01-08T01:36:14;98882.06;;;8.15;100.00
32083;BME280;18597;48.328;7.932;2023-01-08T01:38:45;98877.31;;;8.49;100.00
32083;BME280;18597;48.328;7.932;2023-01-08T01:41:24;98877.63;;;8.56;100.00
32083;BME280;18597;48.328;7.932;2023-01-08T01:43:52;98881.97;;;8.57;100.00
32083;BME280;18597;48.328;7.932;2023-01-08T01:46:35;98878.31;;;8.48;100.00
32083;BME280;18597;48.328;7.932;2023-01-08T01:49:09;98876.41;;;8.89;96.69
32083;BME280;18597;48.328;7.932;2023-01-08T01:51:38;98876.28;;;9.00;95.90
32083;BME280;18597;48.328;7.932;2023-01-08T01:54:09;98864.63;;;8.82;99.27
32083;BME280;18597;48.328;7.932;2023-01-08T01:56:36;98862.78;;;8.73;100.00
32083;BME280;18597;48.328;7.932;2023-01-08T01:59:02;98862.09;;;8.71;100.00
32083;BME280;18597;48.328;7.932;2023-01-08T02:01:30;98860.41;;;8.89;100.00
32083;BME280;18597;48.328;7.932;2023-01-08T02:03:56;98861.81;;;8.83;99.90
32083;BME280;18597;48.328;7.932;2023-01-08T02:07:00;98850.31;;;8.73;100.00
32083;BME280;18597;48.328;7.932;2023-01-08T02:09:49;98852.25;;;8.52;100.00
32083;BME280;18597;48.328;7.932;2023-01-08T02:12:40;98851.59;;;8.29;100.00
32083;BME280;18597;48.328;7.932;2023-01-08T02:15:43;98852.19;;;8.32;100.00
32083;BME280;18597;48.328;7.932;2023-01-08T02:18:19;98842.41;;;8.43;100.00
32083;BME280;18597;48.328;7.932;2023-01-08T02:20:59;98853.75;;;8.35;100.00
32083;BME280;18597;48.328;7.932;2023-01-08T02:24:12;98842.41;;;8.43;100.00
32083;BME280;18597;48.328;7.932;2023-01-08T02:26:44;98840.69;;;8.32;100.00
32083;BME280;18597;48.328;7.932;2023-01-08T02:29:17;98836.25;;;8.42;100.00
32083;BME280;18597;48.328;7.932;2023-01-08T02:31:45;98837.28;;;8.20;100.00
32083;BME280;18597;48.328;7.932;2023-01-08T02:34:12;98829.03;;;8.23;100.00
32083;BME280;18597;48.328;7.932;2023-01-08T02:36:57;98833.16;;;8.37;100.00
32083;BME280;18597;48.328;7.932;2023-01-08T02:42:45;98821.16;;;8.62;100.00
32083;BME280;18597;48.328;7.932;2023-01-08T02:48:38;98815.81;;;8.91;97.74
32083;BME280;18597;48.328;7.932;2023-01-08T02:51:21;98818.25;;;8.84;100.00
32083;BME280;18597;48.328;7.932;2023-01-08T02:53:54;98802.38;;;9.12;95.19
32083;BME280;18597;48.328;7.932;2023-01-08T02:56:28;98806.00;;;9.21;94.47
32083;BME280;18597;48.328;7.932;2023-01-08T02:58:55;98808.09;;;9.27;95.57
32083;BME280;18597;48.328;7.932;2023-01-08T03:01:23;98798.13;;;9.29;90.84
32083;BME280;18597;48.328;7.932;2023-01-08T03:03:56;98807.34;;;9.44;92.21
32083;BME280;18597;48.328;7.932;2023-01-08T03:06:25;98799.81;;;9.39;98.25
32083;BME280;18597;48.328;7.932;2023-01-08T03:08:52;98804.56;;;9.36;96.49
32083;BME280;18597;48.328;7.932;2023-01-08T03:11:21;98795.00;;;9.43;95.87
32083;BME280;18597;48.328;7.932;2023-01-08T03:14:01;98796.72;;;9.81;85.17
32083;BME280;18597;48.328;7.932;2023-01-08T03:16:37;98802.19;;;9.80;85.65
32083;BME280;18597;48.328;7.932;2023-01-08T03:19:30;98809.13;;;10.00;83.21
32083;BME280;18597;48.328;7.932;2023-01-08T03:21:58;98814.66;;;10.16;82.60
32083;BME280;18597;48.328;7.932;2023-01-08T03:24:30;98817.47;;;10.24;81.00
32083;BME280;18597;48.328;7.932;2023-01-08T03:27:01;98815.72;;;10.33;79.70
32083;BME280;18597;48.328;7.932;2023-01-08T03:29:28;98832.66;;;10.24;83.51
32083;BME280;18597;48.328;7.932;2023-01-08T03:32:00;98842.03;;;10.18;84.95
32083;BME280;18597;48.328;7.932;2023-01-08T03:34:28;98843.13;;;9.98;89.87
32083;BME280;18597;48.328;7.932;2023-01-08T03:36:59;98846.19;;;10.03;90.35
32083;BME280;18597;48.328;7.932;2023-01-08T03:39:31;98856.22;;;9.82;96.71
32083;BME280;18597;48.328;7.932;2023-01-08T03:42:06;98868.75;;;9.71;100.00
32083;BME280;18597;48.328;7.932;2023-01-08T03:44:33;98866.94;;;9.72;100.00
32083;BME280;18597;48.328;7.932;2023-01-08T03:47:00;98875.53;;;9.56;100.00
32083;BME280;18597;48.328;7.932;2023-01-08T03:49:28;98870.22;;;9.37;100.00
32083;BME280;18597;48.328;7.932;2023-01-08T03:51:54;98867.13;;;9.51;100.00
32083;BME280;18597;48.328;7.932;2023-01-08T03:54:24;98869.69;;;9.24;100.00
32083;BME280;18597;48.328;7.932;2023-01-08T03:56:53;98857.75;;;9.18;100.00
32083;BME280;18597;48.328;7.932;2023-01-08T03:59:19;98861.56;;;9.15;100.00
32083;BME280;18597;48.328;7.932;2023-01-08T04:01:44;98856.50;;;9.03;100.00
32083;BME280;18597;48.328;7.932;2023-01-08T04:04:11;98864.06;;;8.98;100.00
32083;BME280;18597;48.328;7.932;2023-01-08T04:06:37;98861.53;;;8.96;100.00
32083;BME280;18597;48.328;7.932;2023-01-08T04:09:03;98867.03;;;8.85;100.00
32083;BME280;18597;48.328;7.932;2023-01-08T04:11:29;98866.88;;;8.96;100.00
32083;BME280;18597;48.328;7.932;2023-01-08T04:13:55;98863.38;;;8.86;100.00
32083;BME280;18597;48.328;7.932;2023-01-08T04:16:21;98861.56;;;8.86;100.00
32083;BME280;18597;48.328;7.932;2023-01-08T04:18:47;98865.31;;;8.84;100.00
32083;BME280;18597;48.328;7.932;2023-01-08T04:21:13;98863.34;;;8.67;100.00
32083;BME280;18597;48.328;7.932;2023-01-08T04:23:39;98865.06;;;8.77;100.00
32083;BME280;18597;48.328;7.932;2023-01-08T04:26:06;98860.81;;;8.65;100.00
32083;BME280;18597;48.328;7.932;2023-01-08T04:28:33;98861.38;;;8.69;100.00
32083;BME280;18597;48.328;7.932;2023-01-08T04:31:04;98861.78;;;8.54;100.00
32083;BME280;18597;48.328;7.932;2023-01-08T04:33:30;98867.06;;;8.45;100.00
32083;BME280;18597;48.328;7.932;2023-01-08T04:35:55;98865.16;;;8.56;100.00
32083;BME280;18597;48.328;7.932;2023-01-08T04:38:21;98854.06;;;8.51;100.00
32083;BME280;18597;48.328;7.932;2023-01-08T04:40:47;98857.59;;;8.61;100.00
32083;BME280;18597;48.328;7.932;2023-01-08T04:43:13;98844.69;;;8.47;100.00
32083;BME280;18597;48.328;7.932;2023-01-08T04:45:38;98842.97;;;8.46;100.00
32083;BME280;18597;48.328;7.932;2023-01-08T04:48:04;98839.06;;;8.50;100.00
32083;BME280;18597;48.328;7.932;2023-01-08T04:50:30;98843.69;;;8.48;100.00
32083;BME280;18597;48.328;7.932;2023-01-08T04:52:58;98845.38;;;8.49;100.00
32083;BME280;18597;48.328;7.932;2023-01-08T04:55:24;98838.47;;;8.37;100.00
32083;BME280;18597;48.328;7.932;2023-01-08T04:57:50;98834.59;;;8.51;100.00
32083;BME280;18597;48.328;7.932;2023-01-08T05:00:16;98823.66;;;8.44;100.00
32083;BME280;18597;48.328;7.932;2023-01-08T05:02:42;98829.78;;;8.35;100.00
32083;BME280;18597;48.328;7.932;2023-01-08T05:05:08;98835.63;;;8.29;100.00
32083;BME280;18597;48.328;7.932;2023-01-08T05:07:34;98819.16;;;8.35;100.00
32083;BME280;18597;48.328;7.932;2023-01-08T05:09:59;98823.09;;;8.41;100.00
32083;BME280;18597;48.328;7.932;2023-01-08T05:12:25;98823.66;;;8.44;100.00
32083;BME280;18597;48.328;7.932;2023-01-08T05:14:51;98810.03;;;8.38;100.00
32083;BME280;18597;48.328;7.932;2023-01-08T05:17:17;98817.78;;;8.41;100.00
32083;BME280;18597;48.328;7.932;2023-01-08T05:19:43;98815.34;;;8.38;100.00
32083;BME280;18597;48.328;7.932;2023-01-08T05:22:08;98808.81;;;8.42;100.00
32083;BME280;18597;48.328;7.932;2023-01-08T05:24:34;98812.00;;;8.36;100.00
32083;BME280;18597;48.328;7.932;2023-01-08T05:27:00;98799.97;;;8.41;100.00
32083;BME280;18597;48.328;7.932;2023-01-08T05:29:26;98798.41;;;8.39;100.00
32083;BME280;18597;48.328;7.932;2023-01-08T05:31:52;98800.22;;;8.38;100.00
32083;BME280;18597;48.328;7.932;2023-01-08T05:34:18;98802.59;;;8.31;100.00
32083;BME280;18597;48.328;7.932;2023-01-08T05:36:43;98793.81;;;8.41;100.00
32083;BME280;18597;48.328;7.932;2023-01-08T05:39:09;98796.78;;;8.47;100.00
32083;BME280;18597;48.328;7.932;2023-01-08T05:41:35;98795.19;;;8.45;100.00
32083;BME280;18597;48.328;7.932;2023-01-08T05:44:01;98806.69;;;8.45;100.00
32083;BME280;18597;48.328;7.932;2023-01-08T05:46:27;98797.72;;;8.46;100.00
32083;BME280;18597;48.328;7.932;2023-01-08T05:48:53;98795.78;;;8.48;100.00
32083;BME280;18597;48.328;7.932;2023-01-08T05:51:18;98800.69;;;8.43;100.00
32083;BME280;18597;48.328;7.932;2023-01-08T05:53:44;98801.72;;;8.31;100.00
32083;BME280;18597;48.328;7.932;2023-01-08T05:56:11;98791.41;;;8.38;100.00
32083;BME280;18597;48.328;7.932;2023-01-08T05:58:37;98795.06;;;8.46;100.00
32083;BME280;18597;48.328;7.932;2023-01-08T06:01:11;98797.47;;;8.49;100.00
32083;BME280;18597;48.328;7.932;2023-01-08T06:03:38;98794.22;;;8.46;100.00
32083;BME280;18597;48.328;7.932;2023-01-08T06:06:06;98788.50;;;8.50;100.00
32083;BME280;18597;48.328;7.932;2023-01-08T06:08:34;98792.41;;;8.46;100.00
32083;BME280;18597;48.328;7.932;2023-01-08T06:11:01;98791.44;;;8.57;100.00
32083;BME280;18597;48.328;7.932;2023-01-08T06:13:28;98793.53;;;8.44;100.00
32083;BME280;18597;48.328;7.932;2023-01-08T06:15:57;98788.91;;;8.46;100.00
32083;BME280;18597;48.328;7.932;2023-01-08T06:18:23;98785.28;;;8.56;100.00
32083;BME280;18597;48.328;7.932;2023-01-08T06:20:49;98787.41;;;8.63;100.00
32083;BME280;18597;48.328;7.932;2023-01-08T06:23:15;98790.59;;;8.66;100.00
32083;BME280;18597;48.328;7.932;2023-01-08T06:25:41;98791.03;;;8.61;100.00
32083;BME280;18597;48.328;7.932;2023-01-08T06:28:06;98787.81;;;8.58;100.00
32083;BME280;18597;48.328;7.932;2023-01-08T06:30:33;98789.78;;;8.66;100.00
32083;BME280;18597;48.328;7.932;2023-01-08T06:33:00;98786.56;;;8.62;100.00
32083;BME280;18597;48.328;7.932;2023-01-08T06:35:27;98779.53;;;8.61;100.00
32083;BME280;18597;48.328;7.932;2023-01-08T06:37:55;98783.91;;;8.62;100.00
32083;BME280;18597;48.328;7.932;2023-01-08T06:40:22;98778.97;;;8.57;100.00
32083;BME280;18597;48.328;7.932;2023-01-08T06:42:48;98774.94;;;8.63;100.00
32083;BME280;18597;48.328;7.932;2023-01-08T06:45:14;98786.41;;;8.64;100.00
32083;BME280;18597;48.328;7.932;2023-01-08T06:47:40;98785.72;;;8.71;100.00
32083;BME280;18597;48.328;7.932;2023-01-08T06:50:07;98785.72;;;8.61;100.00
32083;BME280;18597;48.328;7.932;2023-01-08T06:52:33;98785.13;;;8.58;100.00
32083;BME280;18597;48.328;7.932;2023-01-08T06:54:59;98788.78;;;8.57;100.00
32083;BME280;18597;48.328;7.932;2023-01-08T06:57:25;98780.50;;;8.60;100.00
32083;BME280;18597;48.328;7.932;2023-01-08T06:59:51;98783.59;;;8.65;100.00
32083;BME280;18597;48.328;7.932;2023-01-08T07:02:17;98789.38;;;8.70;100.00
32083;BME280;18597;48.328;7.932;2023-01-08T07:04:43;98780.38;;;8.71;100.00
32083;BME280;18597;48.328;7.932;2023-01-08T07:07:13;98788.09;;;8.65;100.00
32083;BME280;18597;48.328;7.932;2023-01-08T07:09:41;98786.66;;;8.60;100.00
32083;BME280;18597;48.328;7.932;2023-01-08T07:12:12;98782.34;;;8.59;100.00
32083;BME280;18597;48.328;7.932;2023-01-08T07:14:39;98791.69;;;8.44;100.00
32083;BME280;18597;48.328;7.932;2023-01-08T07:17:05;98785.97;;;8.58;100.00
32083;BME280;18597;48.328;7.932;2023-01-08T07:19:32;98781.78;;;8.66;100.00
32083;BME280;18597;48.328;7.932;2023-01-08T07:21:58;98780.78;;;8.67;100.00
32083;BME280;18597;48.328;7.932;2023-01-08T07:24:24;98788.25;;;8.63;100.00
32083;BME280;18597;48.328;7.932;2023-01-08T07:26:50;98787.81;;;8.58;100.00
32083;BME280;18597;48.328;7.932;2023-01-08T07:29:15;98787.81;;;8.58;100.00
32083;BME280;18597;48.328;7.932;2023-01-08T07:31:41;98788.50;;;8.60;100.00
32083;BME280;18597;48.328;7.932;2023-01-08T07:34:07;98783.31;;;8.58;100.00
32083;BME280;18597;48.328;7.932;2023-01-08T07:36:33;98790.47;;;8.48;100.00
32083;BME280;18597;48.328;7.932;2023-01-08T07:38:59;98782.88;;;8.53;100.00
32083;BME280;18597;48.328;7.932;2023-01-08T07:41:25;98778.69;;;8.60;100.00
32083;BME280;18597;48.328;7.932;2023-01-08T07:43:51;98782.47;;;8.48;100.00
32083;BME280;18597;48.328;7.932;2023-01-08T07:46:17;98783.56;;;8.46;100.00
32083;BME280;18597;48.328;7.932;2023-01-08T07:48:43;98788.34;;;8.42;100.00
32083;BME280;18597;48.328;7.932;2023-01-08T07:51:09;98779.09;;;8.46;100.00
32083;BME280;18597;48.328;7.932;2023-01-08T07:53:36;98784.56;;;8.45;100.00
32083;BME280;18597;48.328;7.932;2023-01-08T07:56:05;98774.59;;;8.37;100.00
32083;BME280;18597;48.328;7.932;2023-01-08T07:58:32;98769.56;;;8.44;100.00
32083;BME280;18597;48.328;7.932;2023-01-08T08:00:59;98773.44;;;8.30;100.00
32083;BME280;18597;48.328;7.932;2023-01-08T08:03:25;98774.84;;;8.24;100.00
32083;BME280;18597;48.328;7.932;2023-01-08T08:05:51;98770.63;;;8.22;100.00
32083;BME280;18597;48.328;7.932;2023-01-08T08:08:17;98770.09;;;8.28;100.00
32083;BME280;18597;48.328;7.932;2023-01-08T08:10:44;98773.34;;;8.41;100.00
32083;BME280;18597;48.328;7.932;2023-01-08T08:13:11;98765.09;;;8.44;100.00
32083;BME280;18597;48.328;7.932;2023-01-08T08:15:38;98766.50;;;8.48;100.00
32083;BME280;18597;48.328;7.932;2023-01-08T08:18:04;98776.88;;;8.51;100.00
32083;BME280;18597;48.328;7.932;2023-01-08T08:20:30;98770.00;;;8.58;100.00
32083;BME280;18597;48.328;7.932;2023-01-08T08:23:03;98769.47;;;8.55;100.00
32083;BME280;18597;48.328;7.932;2023-01-08T08:25:29;98770.69;;;8.60;100.00
32083;BME280;18597;48.328;7.932;2023-01-08T08:27:57;98782.06;;;8.63;100.00
32083;BME280;18597;48.328;7.932;2023-01-08T08:30:25;98774.09;;;8.63;100.00
32083;BME280;18597;48.328;7.932;2023-01-08T08:32:52;98781.50;;;8.78;100.00
32083;BME280;18597;48.328;7.932;2023-01-08T08:35:18;98787.50;;;8.61;100.00
32083;BME280;18597;48.328;7.932;2023-01-08T08:37:44;98773.66;;;8.67;100.00
32083;BME280;18597;48.328;7.932;2023-01-08T08:40:10;98783.31;;;8.87;100.00
32083;BME280;18597;48.328;7.932;2023-01-08T08:42:36;98779.09;;;9.04;100.00
32083;BME280;18597;48.328;7.932;2023-01-08T08:45:02;98765.22;;;9.10;100.00
32083;BME280;18597;48.328;7.932;2023-01-08T08:47:28;98782.00;;;9.21;100.00
32083;BME280;18597;48.328;7.932;2023-01-08T08:49:53;98772.47;;;9.28;100.00
32083;BME280;18597;48.328;7.932;2023-01-08T08:52:19;98778.47;;;9.39;100.00
32083;BME280;18597;48.328;7.932;2023-01-08T08:54:45;98763.44;;;9.48;100.00
32083;BME280;18597;48.328;7.932;2023-01-08T08:57:11;98769.72;;;9.57;100.00
32083;BME280;18597;48.328;7.932;2023-01-08T08:59:37;98770.13;;;9.62;100.00
32083;BME280;18597;48.328;7.932;2023-01-08T09:02:03;98780.84;;;9.80;100.00
32083;BME280;18597;48.328;7.932;2023-01-08T09:04:31;98767.63;;;9.88;100.00
32083;BME280;18597;48.328;7.932;2023-01-08T09:06:58;98776.19;;;9.82;100.00
32083;BME280;18597;48.328;7.932;2023-01-08T09:09:24;98781.53;;;9.82;100.00
32083;BME280;18597;48.328;7.932;2023-01-08T09:11:51;98784.81;;;9.76;100.00
32083;BME280;18597;48.328;7.932;2023-01-08T09:14:17;98786.78;;;9.73;100.00
32083;BME280;18597;48.328;7.932;2023-01-08T09:16:42;98782.56;;;9.71;100.00
32083;BME280;18597;48.328;7.932;2023-01-08T09:19:09;98785.56;;;9.68;100.00
32083;BME280;18597;48.328;7.932;2023-01-08T09:21:35;98791.88;;;9.57;100.00
32083;BME280;18597;48.328;7.932;2023-01-08T09:24:02;98794.28;;;9.60;100.00
32083;BME280;18597;48.328;7.932;2023-01-08T09:26:28;98783.63;;;9.60;100.00
32083;BME280;18597;48.328;7.932;2023-01-08T09:28:56;98799.16;;;9.65;100.00
32083;BME280;18597;48.328;7.932;2023-01-08T09:31:23;98801.81;;;9.65;100.00
32083;BME280;18597;48.328;7.932;2023-01-08T09:33:49;98805.34;;;9.65;100.00
32083;BME280;18597;48.328;7.932;2023-01-08T09:36:16;98809.00;;;9.64;100.00
32083;BME280;18597;48.328;7.932;2023-01-08T09:38:42;98808.25;;;9.72;100.00
32083;BME280;18597;48.328;7.932;2023-01-08T09:41:18;98807.13;;;9.74;100.00
32083;BME280;18597;48.328;7.932;2023-01-08T09:43:48;98806.00;;;9.77;100.00
32083;BME280;18597;48.328;7.932;2023-01-08T09:46:20;98811.97;;;9.89;100.00
32083;BME280;18597;48.328;7.932;2023-01-08T09:48:47;98814.91;;;9.95;100.00
32083;BME280;18597;48.328;7.932;2023-01-08T09:51:16;98810.13;;;9.99;100.00
32083;BME280;18597;48.328;7.932;2023-01-08T09:53:43;98811.66;;;10.01;100.00
32083;BME280;18597;48.328;7.932;2023-01-08T09:56:14;98819.91;;;10.08;100.00
32083;BME280;18597;48.328;7.932;2023-01-08T09:59:01;98811.75;;;10.10;100.00
32083;BME280;18597;48.328;7.932;2023-01-08T10:01:34;98813.63;;;9.99;100.00
32083;BME280;18597;48.328;7.932;2023-01-08T10:04:20;98826.81;;;10.01;100.00
32083;BME280;18597;48.328;7.932;2023-01-08T10:07:12;98815.78;;;9.86;100.00
32083;BME280;18597;48.328;7.932;2023-01-08T10:09:40;98813.84;;;9.79;100.00
32083;BME280;18597;48.328;7.932;2023-01-08T10:12:08;98814.16;;;9.76;100.00
32083;BME280;18597;48.328;7.932;2023-01-08T10:14:38;98797.91;;;9.69;100.00
32083;BME280;18597;48.328;7.932;2023-01-08T10:17:17;98807.41;;;9.71;100.00
32083;BME280;18597;48.328;7.932;2023-01-08T10:19:45;98806.03;;;9.67;100.00
32083;BME280;18597;48.328;7.932;2023-01-08T10:22:16;98807.72;;;9.59;100.00
32083;BME280;18597;48.328;7.932;2023-01-08T10:24:43;98800.56;;;9.59;100.00
32083;BME280;18597;48.328;7.932;2023-01-08T10:27:15;98799.88;;;9.57;100.00
32083;BME280;18597;48.328;7.932;2023-01-08T10:29:41;98791.63;;;9.60;100.00
32083;BME280;18597;48.328;7.932;2023-01-08T10:32:17;98770.66;;;9.65;100.00
32083;BME280;18597;48.328;7.932;2023-01-08T10:34:46;98770.50;;;9.67;100.00
32083;BME280;18597;48.328;7.932;2023-01-08T10:40:16;98768.91;;;9.84;100.00
32083;BME280;18597;48.328;7.932;2023-01-08T10:42:45;98758.94;;;9.86;100.00
32083;BME280;18597;48.328;7.932;2023-01-08T10:45:20;98749.84;;;9.79;100.00
32083;BME280;18597;48.328;7.932;2023-01-08T10:47:50;98744.59;;;9.87;100.00
32083;BME280;18597;48.328;7.932;2023-01-08T10:50:25;98735.31;;;9.91;100.00
32083;BME280;18597;48.328;7.932;2023-01-08T10:52:55;98728.25;;;9.99;100.00
32083;BME280;18597;48.328;7.932;2023-01-08T10:55:29;98723.53;;;10.11;100.00
32083;BME280;18597;48.328;7.932;2023-01-08T10:58:03;98718.53;;;10.26;100.00
32083;BME280;18597;48.328;7.932;2023-01-08T11:00:33;98719.84;;;10.40;100.00
32083;BME280;18597;48.328;7.932;2023-01-08T11:03:03;98711.41;;;10.44;100.00
32083;BME280;18597;48.328;7.932;2023-01-08T11:05:34;98705.38;;;10.60;100.00
32083;BME280;18597;48.328;7.932;2023-01-08T11:08:04;98706.38;;;10.59;100.00
32083;BME280;18597;48.328;7.932;2023-01-08T11:10:33;98695.66;;;10.77;100.00
32083;BME280;18597;48.328;7.932;2023-01-08T11:13:02;98683.50;;;10.65;100.00
32083;BME280;18597;48.328;7.932;2023-01-08T11:15:37;98672.13;;;10.80;100.00
32083;BME280;18597;48.328;7.932;2023-01-08T11:18:18;98666.34;;;11.11;100.00
32083;BME280;18597;48.328;7.932;2023-01-08T11:20:46;98666.38;;;11.19;100.00
32083;BME280;18597;48.328;7.932;2023-01-08T11:23:23;98651.06;;;11.29;100.00
32083;BME280;18597;48.328;7.932;2023-01-08T11:26:07;98634.38;;;11.35;100.00
32083;BME280;18597;48.328;7.932;2023-01-08T11:29:15;98654.47;;;11.14;100.00
32083;BME280;18597;48.328;7.932;2023-01-08T11:35:03;98667.41;;;11.26;100.00
32083;BME280;18597;48.328;7.932;2023-01-08T11:37:39;98661.16;;;11.44;100.00
32083;BME280;18597;48.328;7.932;2023-01-08T11:40:16;98660.34;;;11.51;100.00
32083;BME280;18597;48.328;7.932;2023-01-08T11:49:45;98636.34;;;10.99;100.00
32083;BME280;18597;48.328;7.932;2023-01-08T11:52:37;98633.31;;;10.94;100.00
32083;BME280;18597;48.328;7.932;2023-01-08T11:55:23;98619.47;;;10.99;100.00
32083;BME280;18597;48.328;7.932;2023-01-08T11:58:50;98617.47;;;11.01;100.00
32083;BME280;18597;48.328;7.932;2023-01-08T12:04:35;98613.22;;;11.16;100.00
32083;BME280;18597;48.328;7.932;2023-01-08T12:07:49;98607.38;;;11.13;100.00
32083;BME280;18597;48.328;7.932;2023-01-08T12:17:11;98595.34;;;11.59;100.00
32083;BME280;18597;48.328;7.932;2023-01-08T12:20:25;98596.78;;;11.87;100.00
32083;BME280;18597;48.328;7.932;2023-01-08T12:23:20;98593.44;;;11.93;100.00
32083;BME280;18597;48.328;7.932;2023-01-08T12:31:53;98585.75;;;12.15;100.00
32083;BME280;18597;48.328;7.932;2023-01-08T12:34:48;98590.44;;;12.13;100.00
32083;BME280;18597;48.328;7.932;2023-01-08T12:40:19;98574.22;;;12.47;100.00
32083;BME280;18597;48.328;7.932;2023-01-08T12:42:47;98565.19;;;12.48;98.62
32083;BME280;18597;48.328;7.932;2023-01-08T12:45:25;98568.38;;;12.27;100.00
32083;BME280;18597;48.328;7.932;2023-01-08T12:47:59;98569.69;;;12.07;99.87
32083;BME280;18597;48.328;7.932;2023-01-08T12:51:12;98580.75;;;11.96;100.00
32083;BME280;18597;48.328;7.932;2023-01-08T12:54:23;98570.53;;;12.07;100.00
32083;BME280;18597;48.328;7.932;2023-01-08T13:02:58;98552.41;;;11.77;100.00
32083;BME280;18597;48.328;7.932;2023-01-08T13:05:32;98553.88;;;11.63;100.00
32083;BME280;18597;48.328;7.932;2023-01-08T13:08:03;98537.94;;;11.37;100.00
32083;BME280;18597;48.328;7.932;2023-01-08T13:13:27;98530.81;;;11.03;100.00
32083;BME280;18597;48.328;7.932;2023-01-08T13:16:18;98525.16;;;11.15;100.00
32083;BME280;18597;48.328;7.932;2023-01-08T13:19:01;98513.53;;;11.40;100.00
32083;BME280;18597;48.328;7.932;2023-01-08T13:21:40;98520.75;;;11.56;100.00
32083;BME280;18597;48.328;7.932;2023-01-08T13:24:40;98513.72;;;11.38;100.00
32083;BME280;18597;48.328;7.932;2023-01-08T13:27:26;98512.38;;;11.34;100.00
32083;BME280;18597;48.328;7.932;2023-01-08T13:29:53;98513.91;;;11.45;100.00
32083;BME280;18597;48.328;7.932;2023-01-08T13:35:22;98496.66;;;11.48;100.00
32083;BME280;18597;48.328;7.932;2023-01-08T13:38:03;98498.19;;;11.50;100.00
32083;BME280;18597;48.328;7.932;2023-01-08T13:43:29;98497.97;;;11.19;100.00
32083;BME280;18597;48.328;7.932;2023-01-08T13:48:39;98480.47;;;11.41;100.00
32083;BME280;18597;48.328;7.932;2023-01-08T13:51:47;98475.81;;;11.51;100.00
32083;BME280;18597;48.328;7.932;2023-01-08T13:56:53;98474.41;;;11.31;100.00
32083;BME280;18597;48.328;7.932;2023-01-08T13:59:38;98478.59;;;11.33;100.00
32083;BME280;18597;48.328;7.932;2023-01-08T14:05:00;98469.25;;;11.29;100.00
32083;BME280;18597;48.328;7.932;2023-01-08T14:07:26;98457.72;;;11.37;100.00
32083;BME280;18597;48.328;7.932;2023-01-08T14:09:52;98460.41;;;11.53;100.00
32083;BME280;18597;48.328;7.932;2023-01-08T14:12:22;98451.56;;;11.45;100.00
32083;BME280;18597;48.328;7.932;2023-01-08T14:14:57;98453.34;;;11.20;100.00
32083;BME280;18597;48.328;7.932;2023-01-08T14:17:30;98446.44;;;11.01;100.00
32083;BME280;18597;48.328;7.932;2023-01-08T14:19:58;98444.59;;;10.93;100.00